Time;durP1;ratioP1;P1;durP2;ratioP2;P2;SDS_P1;SDS_P2;PMS_P1;PMS_P2;Temp;Humidity;BMP_temperature;BMP_pressure;BME280_temperature;BME280_humidity;BME280_pressure;Samples;Min_cycle;Max_cycle;Signal;HPM_P1;HPM_P2
2023/12/15 00:02:48;;;;;;;39.07;17.13;;;;;;;0.52;100.00;101466.42;5040902;56;1140815;-82
2023/12/15 00:07:54;;;;;;;48.52;19.95;;;;;;;0.49;100.00;101476.44;5040824;56;1140924;-81
2023/12/15 00:13:00;;;;;;;40.10;17.80;;;;;;;0.45;100.00;101491.73;5027103;56;1140745;-83
2023/12/15 00:18:05;;;;;;;35.90;17.07;;;;;;;0.43;100.00;101500.45;4937442;57;1140763;-83
2023/12/15 00:23:11;;;;;;;38.77;17.90;;;;;;;0.41;100.00;101503.53;4934509;57;1140886;-81
2023/12/15 00:28:17;;;;;;;40.63;17.75;;;;;;;0.46;100.00;101508.20;4963274;57;1140808;-82
2023/12/15 00:33:22;;;;;;;37.47;16.53;;;;;;;0.42;100.00;101517.81;5034763;57;1140863;-83
2023/12/15 00:38:28;;;;;;;35.53;16.47;;;;;;;0.40;100.00;101511.77;5014838;57;1141073;-84
2023/12/15 00:43:33;;;;;;;39.47;16.83;;;;;;;0.44;100.00;101525.15;5014757;57;1140819;-84
2023/12/15 00:48:39;;;;;;;31.57;16.00;;;;;;;0.49;100.00;101522.43;4962237;57;1141148;-82
2023/12/15 00:53:45;;;;;;;31.57;15.23;;;;;;;0.49;100.00;101540.20;4934043;58;1141167;-83
2023/12/15 00:58:50;;;;;;;36.03;16.97;;;;;;;0.48;100.00;101551.50;4935112;57;1140746;-84
2023/12/15 01:03:56;;;;;;;33.07;18.23;;;;;;;0.45;100.00;101560.70;4954222;58;1140858;-82
2023/12/15 01:09:01;;;;;;;36.83;17.57;;;;;;;0.49;100.00;101558.87;4934195;57;1140927;-82
2023/12/15 01:14:07;;;;;;;44.13;19.40;;;;;;;0.55;100.00;101573.94;5005620;57;1140815;-83
2023/12/15 01:19:13;;;;;;;28.63;14.83;;;;;;;0.58;100.00;101562.61;5015866;57;1140895;-80
2023/12/15 01:24:19;;;;;;;32.96;14.28;;;;;;;0.59;100.00;101565.63;5051998;57;1140649;-81
2023/12/15 01:29:25;;;;;;;23.33;11.77;;;;;;;0.61;100.00;101567.28;4938494;57;1140839;-82
2023/12/15 01:34:30;;;;;;;32.13;14.97;;;;;;;0.63;100.00;101569.86;4937586;57;1140819;-79
2023/12/15 01:39:36;;;;;;;24.00;12.17;;;;;;;0.63;100.00;101574.62;5035241;57;1140845;-82
2023/12/15 01:44:43;;;;;;;24.20;12.40;;;;;;;0.66;100.00;101582.38;5015485;57;1140851;-81
2023/12/15 01:49:48;;;;;;;16.50;9.37;;;;;;;0.72;100.00;101581.41;4998480;57;1140802;-80
2023/12/15 01:54:54;;;;;;;18.73;10.30;;;;;;;0.76;100.00;101592.19;4958390;57;1138814;-81
2023/12/15 02:00:06;;;;;;;15.13;8.50;;;;;;;0.72;100.00;101585.31;4934496;58;1140656;-81
2023/12/15 02:05:10;;;;;;;19.13;9.10;;;;;;;0.68;100.00;101597.53;4933020;58;1138748;-81
2023/12/15 02:10:15;;;;;;;17.93;8.67;;;;;;;0.68;100.00;101597.97;4933705;58;1138940;-82
2023/12/15 02:15:21;;;;;;;19.23;8.80;;;;;;;0.68;100.00;101590.16;4950304;58;1138657;-81
2023/12/15 02:20:27;;;;;;;16.97;8.70;;;;;;;0.68;100.00;101588.42;5002813;57;1147422;-81
2023/12/15 02:25:33;;;;;;;15.90;8.55;;;;;;;0.73;100.00;101592.69;5000593;57;1138851;-80
2023/12/15 02:30:39;;;;;;;19.53;9.57;;;;;;;0.78;100.00;101592.13;5035778;57;1138748;-81
2023/12/15 02:35:47;;;;;;;15.67;8.57;;;;;;;0.82;100.00;101599.86;5014675;57;1138903;-82
2023/12/15 02:40:52;;;;;;;16.87;9.30;;;;;;;0.79;100.00;101605.56;5015549;57;1138760;-81
2023/12/15 02:45:58;;;;;;;13.37;8.03;;;;;;;0.74;100.00;101609.58;5034999;57;1138914;-81
2023/12/15 02:51:03;;;;;;;16.20;9.30;;;;;;;0.66;100.00;101625.34;4966002;57;1138511;-81
2023/12/15 02:56:09;;;;;;;17.63;8.93;;;;;;;0.66;100.00;101630.98;4935178;57;1138810;-81
2023/12/15 03:01:15;;;;;;;15.97;8.27;;;;;;;0.67;100.00;101637.91;4935744;57;1138652;-81
2023/12/15 03:06:21;;;;;;;18.87;9.95;;;;;;;0.67;100.00;101641.81;4955967;57;1139219;-82
2023/12/15 03:11:27;;;;;;;16.67;8.93;;;;;;;0.67;100.00;101653.53;4935792;57;1143465;-80
2023/12/15 03:16:32;;;;;;;19.46;9.34;;;;;;;0.68;100.00;101662.62;4993245;57;1138824;-80
2023/12/15 03:21:38;;;;;;;17.93;10.20;;;;;;;0.67;100.00;101666.11;4981482;58;1138715;-82
2023/12/15 03:26:43;;;;;;;14.90;8.13;;;;;;;0.66;100.00;101666.99;5013077;57;1140869;-80
2023/12/15 03:31:49;;;;;;;15.53;9.30;;;;;;;0.69;100.00;101679.09;4998734;57;1138557;-81
2023/12/15 03:36:55;;;;;;;19.85;10.13;;;;;;;0.70;100.00;101676.47;5017894;57;1138827;-80
2023/12/15 03:42:06;;;;;;;16.90;8.30;;;;;;;0.73;100.00;101680.77;4997998;57;1140915;-81
2023/12/15 03:47:09;;;;;;;19.20;9.50;;;;;;;0.77;100.00;101680.24;4998543;57;1138671;-80
2023/12/15 03:52:15;;;;;;;18.17;9.87;;;;;;;0.80;100.00;101691.91;4998004;57;1138684;-80
2023/12/15 03:57:20;;;;;;;17.93;9.00;;;;;;;0.83;100.00;101685.34;5016651;58;1138647;-82
2023/12/15 04:02:26;;;;;;;15.93;8.67;;;;;;;0.85;100.00;101700.50;4997633;57;1138668;-80
2023/12/15 04:07:32;;;;;;;19.85;9.73;;;;;;;0.86;100.00;101712.20;4998069;58;1138670;-81
2023/12/15 04:12:37;;;;;;;14.47;8.40;;;;;;;0.87;100.00;101720.43;5035531;57;1138740;-83
2023/12/15 04:17:43;;;;;;;16.63;7.87;;;;;;;0.92;100.00;101731.59;4997639;58;1138742;-81
2023/12/15 04:22:48;;;;;;;14.77;8.43;;;;;;;0.93;100.00;101734.63;4981548;58;1138803;-81
2023/12/15 04:27:54;;;;;;;15.73;7.57;;;;;;;0.93;100.00;101739.83;4968288;57;1138658;-81
2023/12/15 04:33:00;;;;;;;15.33;8.20;;;;;;;0.94;100.00;101746.76;4935028;58;1138929;-81
2023/12/15 04:38:05;;;;;;;15.10;8.70;;;;;;;0.94;100.00;101744.59;4934733;58;1138948;-82
2023/12/15 04:43:11;;;;;;;14.93;7.20;;;;;;;0.94;100.00;101755.02;4934935;58;1138953;-82
2023/12/15 04:48:17;;;;;;;16.40;8.07;;;;;;;0.94;100.00;101758.48;4954075;58;1138868;-83
2023/12/15 04:53:23;;;;;;;13.68;8.80;;;;;;;0.95;100.00;101764.55;4891389;58;1138613;-82
2023/12/15 04:58:29;;;;;;;13.78;7.85;;;;;;;0.96;100.00;101771.03;4885460;58;1138499;-81
2023/12/15 05:03:34;;;;;;;17.02;9.40;;;;;;;0.98;100.00;101774.92;4893899;58;1138707;-82
2023/12/15 05:08:40;;;;;;;17.12;9.05;;;;;;;0.96;100.00;101773.64;4852505;58;1138800;-80
2023/12/15 05:13:45;;;;;;;18.77;10.23;;;;;;;0.97;100.00;101775.36;4826342;59;1138540;-81
2023/12/15 05:18:51;;;;;;;18.23;10.13;;;;;;;0.95;100.00;101795.36;4818485;58;1140993;-84
2023/12/15 05:23:58;;;;;;;17.53;10.17;;;;;;;0.96;100.00;101800.13;4795959;58;1140920;-82
2023/12/15 05:29:04;;;;;;;18.57;10.47;;;;;;;0.95;100.00;101807.52;5011293;57;1140660;-85
2023/12/15 05:34:10;;;;;;;20.17;10.33;;;;;;;0.93;100.00;101810.16;5013681;57;1140936;-83
2023/12/15 05:39:15;;;;;;;18.63;10.37;;;;;;;0.89;100.00;101812.86;4853558;58;1140914;-87
2023/12/15 05:44:21;;;;;;;23.17;12.10;;;;;;;0.88;100.00;101815.05;4903537;58;1140782;-83
2023/12/15 05:49:26;;;;;;;24.50;12.33;;;;;;;0.89;100.00;101820.23;4928501;57;1141100;-84
2023/12/15 05:54:32;;;;;;;24.60;11.87;;;;;;;0.91;100.00;101819.77;4889476;58;1141050;-71
2023/12/15 05:59:37;;;;;;;19.97;10.63;;;;;;;0.93;100.00;101819.27;4983822;57;1140969;-70
2023/12/15 06:04:43;;;;;;;20.37;10.20;;;;;;;0.96;100.00;101824.88;4856214;58;1140989;-70
2023/12/15 06:09:49;;;;;;;26.57;13.55;;;;;;;0.96;100.00;101836.59;4949993;58;1140847;-71
2023/12/15 06:14:54;;;;;;;19.82;11.25;;;;;;;0.94;100.00;101838.36;5072013;56;1140851;-70
2023/12/15 06:20:00;;;;;;;21.43;12.40;;;;;;;0.92;100.00;101847.50;5090614;56;1141004;-70
2023/12/15 06:25:06;;;;;;;27.90;13.63;;;;;;;0.90;100.00;101851.91;5049625;56;1140987;-69
2023/12/15 06:30:13;;;;;;;22.87;11.33;;;;;;;0.90;100.00;101861.45;5046855;57;1140686;-70
2023/12/15 06:35:19;;;;;;;27.60;13.00;;;;;;;0.90;100.00;101870.13;5019640;56;1140903;-71
2023/12/15 06:40:24;;;;;;;24.40;13.30;;;;;;;0.89;100.00;101871.02;5025323;56;1140855;-71
2023/12/15 06:45:30;;;;;;;32.63;15.93;;;;;;;0.92;100.00;101873.98;5036286;56;1140955;-71
2023/12/15 06:50:36;;;;;;;25.55;14.47;;;;;;;0.92;100.00;101881.36;4968110;57;1140834;-72
2023/12/15 06:55:41;;;;;;;25.77;14.93;;;;;;;0.94;100.00;101891.31;5055128;57;1141019;-70
2023/12/15 07:00:47;;;;;;;23.40;14.40;;;;;;;0.92;100.00;101885.27;4995431;57;1141004;-71
2023/12/15 07:05:52;;;;;;;23.70;13.37;;;;;;;0.94;100.00;101899.13;4982941;57;1140956;-70
2023/12/15 07:10:58;;;;;;;21.80;14.03;;;;;;;0.95;100.00;101902.59;5066098;57;1140934;-70
2023/12/15 07:16:04;;;;;;;23.87;12.60;;;;;;;0.95;100.00;101904.77;5043429;57;1182518;-83
2023/12/15 07:21:11;;;;;;;22.87;11.35;;;;;;;0.98;100.00;101909.92;5006173;57;1140722;-81
2023/12/15 07:26:17;;;;;;;22.07;11.25;;;;;;;1.01;100.00;101904.67;5016135;57;1140912;-87
2023/12/15 07:31:23;;;;;;;21.03;11.20;;;;;;;1.05;100.00;101915.47;5049390;56;1141009;-81
2023/12/15 07:36:28;;;;;;;32.80;14.80;;;;;;;1.10;100.00;101904.09;5043139;57;1140885;-79
2023/12/15 07:41:35;;;;;;;17.67;10.07;;;;;;;1.17;100.00;101905.73;5029661;57;1140989;-83
2023/12/15 07:46:40;;;;;;;34.03;21.25;;;;;;;1.24;100.00;101909.94;5011083;57;1141144;-86
2023/12/15 07:51:46;;;;;;;25.52;13.55;;;;;;;1.23;100.00;101931.22;5047790;57;1140878;-80
2023/12/15 07:56:51;;;;;;;27.47;14.13;;;;;;;1.20;100.00;101942.16;4998527;57;1141777;-85
2023/12/15 08:01:59;;;;;;;27.52;15.60;;;;;;;1.17;100.00;101944.81;5013899;56;1141202;-81
2023/12/15 08:07:05;;;;;;;26.52;13.95;;;;;;;1.18;100.00;101953.05;4999323;56;1141140;-85
2023/12/15 08:12:10;;;;;;;24.90;12.52;;;;;;;1.15;100.00;101943.53;4993831;57;1141038;-82
2023/12/15 08:17:16;;;;;;;33.37;15.17;;;;;;;1.12;100.00;101955.73;5029477;57;1140768;-86
2023/12/15 08:22:21;;;;;;;27.50;15.30;;;;;;;1.05;100.00;101979.30;5068702;56;1141027;-82
2023/12/15 08:27:27;;;;;;;31.60;13.70;;;;;;;1.02;100.00;101991.06;5043856;56;1140555;-87
2023/12/15 08:32:32;;;;;;;26.40;12.07;;;;;;;1.05;100.00;101992.33;5028057;56;1140615;-81
2023/12/15 08:37:38;;;;;;;37.53;18.80;;;;;;;1.11;100.00;101994.41;5036549;56;1243202;-85
2023/12/15 08:42:43;;;;;;;48.08;21.23;;;;;;;1.12;100.00;101991.77;5070375;56;1141495;-81
2023/12/15 08:47:49;;;;;;;151.67;54.97;;;;;;;1.16;100.00;102001.72;5069998;56;1141052;-78
2023/12/15 08:52:55;;;;;;;130.00;47.33;;;;;;;1.21;100.00;102013.80;5009044;57;1143011;-83
2023/12/15 08:58:01;;;;;;;59.43;26.50;;;;;;;1.26;100.00;102028.05;4843717;58;1143301;-86
2023/12/15 09:03:07;;;;;;;29.67;15.80;;;;;;;1.32;100.00;102032.73;4789493;59;1141068;-83
2023/12/15 09:08:13;;;;;;;40.10;16.93;;;;;;;1.40;100.00;102031.30;4824935;59;1141051;-82
2023/12/15 09:13:19;;;;;;;19.03;9.00;;;;;;;1.49;100.00;102039.44;4871665;58;1140957;-82
2023/12/15 09:18:25;;;;;;;20.23;10.98;;;;;;;1.54;100.00;102038.89;4849416;58;1138841;-80
2023/12/15 09:23:31;;;;;;;23.27;10.87;;;;;;;1.60;100.00;102041.42;4871124;58;1140842;-79
2023/12/15 09:28:36;;;;;;;16.70;9.63;;;;;;;1.62;100.00;102040.95;4978225;57;1140897;-82
2023/12/15 09:33:42;;;;;;;27.83;11.80;;;;;;;1.66;100.00;102043.94;4986084;57;1138815;-79
2023/12/15 09:38:47;;;;;;;32.63;14.67;;;;;;;1.69;100.00;102041.25;5027042;56;1140958;-71
2023/12/15 09:43:54;;;;;;;46.93;20.40;;;;;;;1.71;100.00;102030.36;5075358;56;1140957;-71
2023/12/15 09:49:00;;;;;;;26.47;12.20;;;;;;;1.74;100.00;102040.30;5040738;56;1140882;-72
2023/12/15 09:54:06;;;;;;;22.50;11.87;;;;;;;1.79;100.00;102038.07;5077759;56;1141036;-80
2023/12/15 09:59:13;;;;;;;28.93;14.03;;;;;;;1.84;100.00;102037.53;5037735;56;1140942;-82
2023/12/15 10:04:18;;;;;;;22.40;10.87;;;;;;;1.92;100.00;102039.13;5074518;56;1140888;-71
2023/12/15 10:09:24;;;;;;;22.37;11.10;;;;;;;1.99;100.00;102040.73;5058874;56;1140852;-70
2023/12/15 10:14:29;;;;;;;22.22;10.13;;;;;;;2.06;100.00;102046.71;5056720;56;1141300;-70
2023/12/15 10:19:35;;;;;;;16.20;8.53;;;;;;;2.11;100.00;102042.28;5003180;56;1140979;-70
2023/12/15 10:24:41;;;;;;;15.10;8.45;;;;;;;2.13;100.00;102047.03;4981019;57;1138631;-72
2023/12/15 10:29:46;;;;;;;26.17;10.63;;;;;;;2.18;100.00;102048.23;4971533;57;1139122;-70
2023/12/15 10:34:52;;;;;;;19.87;8.68;;;;;;;2.25;100.00;102063.77;4859352;57;1140858;-70
2023/12/15 10:40:01;;;;;;;19.07;9.57;;;;;;;2.30;100.00;102059.30;5023849;56;1138834;-70
2023/12/15 10:45:07;;;;;;;18.07;9.00;;;;;;;2.31;100.00;102064.94;4989003;57;1138973;-70
2023/12/15 10:50:13;;;;;;;22.97;13.37;;;;;;;2.35;100.00;102069.22;5075083;56;1138881;-71
2023/12/15 10:55:20;;;;;;;22.03;10.33;;;;;;;2.42;100.00;102066.06;5092246;56;1141083;-70
2023/12/15 11:00:26;;;;;;;25.27;10.60;;;;;;;2.46;100.00;102063.78;5031474;56;1140779;-70
2023/12/15 11:05:35;;;;;;;16.83;10.07;;;;;;;2.49;100.00;102070.26;5063738;56;1140966;-71
2023/12/15 11:10:41;;;;;;;17.15;9.58;;;;;;;2.52;100.00;102085.01;4953854;57;1141308;-70
2023/12/15 11:15:48;;;;;;;19.80;8.27;;;;;;;2.53;100.00;102088.04;5017585;57;1138797;-70
2023/12/15 11:20:55;;;;;;;18.00;8.03;;;;;;;2.53;100.00;102088.91;5001169;56;1138841;-70
2023/12/15 11:26:03;;;;;;;12.87;7.30;;;;;;;2.56;100.00;102081.02;4863275;58;1140642;-73
2023/12/15 11:31:13;;;;;;;16.17;8.83;;;;;;;2.58;100.00;102076.63;5045799;56;1138695;-82
2023/12/15 11:36:19;;;;;;;14.47;8.63;;;;;;;2.65;100.00;102069.51;5066743;56;1138917;-83
2023/12/15 11:41:25;;;;;;;19.82;8.48;;;;;;;2.57;100.00;102048.78;5015021;56;1139138;-83
2023/12/15 11:46:31;;;;;;;20.07;9.07;;;;;;;2.72;100.00;102066.76;5023090;57;1138907;-83
2023/12/15 11:51:37;;;;;;;14.17;8.67;;;;;;;2.76;100.00;102071.45;5015513;56;1138783;-85
2023/12/15 11:56:44;;;;;;;14.73;8.67;;;;;;;2.76;100.00;102071.45;4983847;57;1138731;-85
2023/12/15 12:01:51;;;;;;;13.50;7.90;;;;;;;2.82;100.00;102076.12;4996594;57;1138985;-83
2023/12/15 12:06:57;;;;;;;14.40;8.18;;;;;;;2.86;100.00;102069.08;5066112;56;1138776;-82
2023/12/15 12:12:02;;;;;;;12.85;7.78;;;;;;;2.88;100.00;102062.08;5035680;56;1138620;-83
2023/12/15 12:17:16;;;;;;;14.33;8.33;;;;;;;2.93;100.00;102056.28;5031823;56;1138760;-81
2023/12/15 12:22:18;;;;;;;26.73;10.27;;;;;;;2.96;100.00;102068.43;5049832;57;1138509;-83
2023/12/15 12:27:36;;;;;;;13.63;8.43;;;;;;;3.00;100.00;102076.18;4993129;57;1140699;-85
2023/12/15 12:32:43;;;;;;;14.40;7.67;;;;;;;3.03;100.00;102076.56;4788217;60;1139048;-71
2023/12/15 12:37:48;;;;;;;22.53;9.27;;;;;;;3.05;100.00;102081.32;4784743;59;1138910;-72
2023/12/15 12:42:57;;;;;;;15.23;8.60;;;;;;;3.05;100.00;102088.72;4977636;57;1139075;-71
2023/12/15 12:48:01;;;;;;;14.87;7.53;;;;;;;3.05;100.00;102094.39;4997355;57;1138866;-71
2023/12/15 12:53:07;;;;;;;14.83;8.33;;;;;;;3.04;100.00;102097.45;4979388;57;1138920;-72
2023/12/15 12:58:13;;;;;;;13.33;7.53;;;;;;;3.08;100.00;102100.83;4854515;58;1139011;-72
2023/12/15 13:03:19;;;;;;;801.65;380.75;;;;;;;3.09;100.00;102103.86;4784949;60;1139047;-71
2023/12/15 13:08:25;;;;;;;16.65;9.68;;;;;;;3.08;100.00;102106.06;4803013;60;1145220;-81
2023/12/15 13:13:30;;;;;;;21.83;9.13;;;;;;;3.04;100.00;102108.34;4841236;59;1138997;-72
2023/12/15 13:18:36;;;;;;;36.03;13.93;;;;;;;3.01;100.00;102111.88;4976451;57;1138738;-81
2023/12/15 13:23:41;;;;;;;29.67;13.50;;;;;;;2.99;100.00;102106.27;5000018;57;1140908;-71
2023/12/15 13:28:47;;;;;;;21.27;9.00;;;;;;;2.99;100.00;102107.13;4892596;58;1140698;-70
2023/12/15 13:33:52;;;;;;;59.40;21.70;;;;;;;2.95;100.00;102107.22;4944770;57;1139023;-72
2023/12/15 13:38:58;;;;;;;25.02;10.32;;;;;;;2.93;100.00;102119.00;5076207;57;1140903;-71
2023/12/15 13:44:04;;;;;;;46.88;15.98;;;;;;;2.91;100.00;102127.31;5031741;57;1140804;-72
2023/12/15 13:49:09;;;;;;;32.37;10.93;;;;;;;2.89;100.00;102125.65;4979020;57;1140756;-72
2023/12/15 13:54:15;;;;;;;31.53;10.63;;;;;;;2.89;100.00;102119.12;4984114;57;1140901;-73
2023/12/15 13:59:21;;;;;;;33.50;12.47;;;;;;;2.86;100.00;102120.03;5011497;57;1141074;-75
2023/12/15 14:04:26;;;;;;;19.00;7.80;;;;;;;2.88;100.00;102127.84;5058082;57;1140936;-76
2023/12/15 14:09:32;;;;;;;64.55;21.75;;;;;;;2.85;100.00;102137.05;5011206;57;1138690;-75
2023/12/15 14:14:37;;;;;;;17.57;9.43;;;;;;;2.84;100.00;102138.80;5004360;57;1140776;-75
2023/12/15 14:19:43;;;;;;;31.50;13.27;;;;;;;2.81;100.00;102133.62;4992517;57;1138890;-71
2023/12/15 14:24:48;;;;;;;51.40;20.57;;;;;;;2.77;100.00;102126.73;4984001;57;1140927;-81
2023/12/15 14:29:55;;;;;;;34.97;14.83;;;;;;;2.76;100.00;102125.87;5034211;57;1140690;-73
2023/12/15 14:35:00;;;;;;;53.92;20.48;;;;;;;2.76;100.00;102131.09;4982386;57;1141096;-80
2023/12/15 14:40:07;;;;;;;46.47;18.73;;;;;;;2.75;100.00;102137.69;4999170;57;1140998;-77
2023/12/15 14:45:12;;;;;;;25.73;13.00;;;;;;;2.74;100.00;102128.98;4825318;59;1140985;-78
2023/12/15 14:50:18;;;;;;;33.27;14.60;;;;;;;2.72;100.00;102130.77;5012925;57;1140780;-77
2023/12/15 14:55:24;;;;;;;21.27;11.63;;;;;;;2.71;100.00;102145.16;5014069;57;1140962;-77
2023/12/15 15:00:29;;;;;;;29.10;13.83;;;;;;;2.67;100.00;102145.65;4977588;58;1140611;-80
2023/12/15 15:05:35;;;;;;;19.23;10.47;;;;;;;2.66;100.00;102149.15;4997275;58;1140863;-78
2023/12/15 15:10:40;;;;;;;26.70;14.60;;;;;;;2.65;100.00;102153.95;4979990;57;1141003;-77
2023/12/15 15:15:46;;;;;;;20.13;12.13;;;;;;;2.66;100.00;102152.20;5059381;57;1141034;-79
2023/12/15 15:20:52;;;;;;;22.13;12.47;;;;;;;2.64;100.00;102167.05;5079555;57;1140950;-79
2023/12/15 15:25:58;;;;;;;70.10;23.43;;;;;;;2.63;100.00;102167.93;4864161;59;1140874;-76
2023/12/15 15:31:04;;;;;;;104.83;35.38;;;;;;;2.60;100.00;102166.70;4906013;58;1140688;-78
2023/12/15 15:36:10;;;;;;;67.57;23.13;;;;;;;2.58;100.00;102169.78;4895063;59;1142807;-75
2023/12/15 15:41:16;;;;;;;57.63;24.67;;;;;;;2.58;100.00;102175.02;4823480;59;1140776;-75
2023/12/15 15:46:22;;;;;;;49.03;23.30;;;;;;;2.58;100.00;102181.09;5009845;58;1140847;-76
2023/12/15 15:51:29;;;;;;;45.73;20.23;;;;;;;2.57;100.00;102175.45;5092040;57;1141016;-75
2023/12/15 15:56:34;;;;;;;32.63;16.67;;;;;;;2.57;100.00;102160.23;5032593;56;1140905;-75
2023/12/15 16:01:40;;;;;;;31.47;17.60;;;;;;;2.55;100.00;102168.53;5031300;57;1140769;-75
2023/12/15 16:06:45;;;;;;;27.97;15.27;;;;;;;2.55;100.00;102155.47;5086239;57;1140595;-76
2023/12/15 16:11:51;;;;;;;27.50;14.90;;;;;;;2.53;100.00;102156.80;5091962;57;1140661;-76
2023/12/15 16:16:57;;;;;;;30.90;15.75;;;;;;;2.52;100.00;102164.66;5091004;56;1141237;-74
2023/12/15 16:22:03;;;;;;;28.10;15.23;;;;;;;2.53;100.00;102160.72;5065556;56;1140790;-81
2023/12/15 16:27:08;;;;;;;27.15;14.93;;;;;;;2.52;100.00;102170.75;5030860;56;1140980;-80
2023/12/15 16:32:14;;;;;;;27.07;15.47;;;;;;;2.52;100.00;102173.36;5026444;55;1141125;-82
2023/12/15 16:37:20;;;;;;;33.63;17.10;;;;;;;2.52;100.00;102174.66;5046161;56;1145535;-81
2023/12/15 16:42:25;;;;;;;29.70;16.30;;;;;;;2.51;100.00;102180.77;5034432;57;1140841;-79
2023/12/15 16:47:31;;;;;;;36.47;17.77;;;;;;;2.51;100.00;102195.14;5055653;57;1140838;-80
2023/12/15 16:52:36;;;;;;;35.88;17.65;;;;;;;2.53;100.00;102206.86;4977078;58;1140994;-81
2023/12/15 16:57:42;;;;;;;32.63;17.67;;;;;;;2.55;100.00;102205.09;5036206;57;1140800;-82
2023/12/15 17:02:48;;;;;;;33.93;18.47;;;;;;;2.56;100.00;102210.73;5059022;57;1140859;-79
2023/12/15 17:07:54;;;;;;;25.53;13.23;;;;;;;2.58;100.00;102206.35;5039435;57;1140802;-77
2023/12/15 17:12:59;;;;;;;41.40;20.23;;;;;;;2.58;100.00;102211.13;5078843;57;1141110;-82
2023/12/15 17:18:05;;;;;;;38.50;20.00;;;;;;;2.58;100.00;102215.49;5007594;57;1140966;-79
2023/12/15 17:23:11;;;;;;;50.37;23.07;;;;;;;2.57;100.00;102208.10;5011231;56;1140918;-82
2023/12/15 17:28:16;;;;;;;60.08;27.52;;;;;;;2.59;100.00;102207.63;5051538;57;1140572;-81
2023/12/15 17:33:22;;;;;;;55.37;24.23;;;;;;;2.62;100.00;102206.69;5056542;57;1140773;-80
2023/12/15 17:38:28;;;;;;;42.67;19.10;;;;;;;2.66;100.00;102221.43;5039322;57;1140818;-80
2023/12/15 17:43:33;;;;;;;32.97;17.03;;;;;;;2.66;100.00;102222.73;5059685;57;1140849;-78
2023/12/15 17:48:39;;;;;;;41.20;20.05;;;;;;;2.66;100.00;102229.27;5079139;57;1141007;-78
2023/12/15 17:53:45;;;;;;;45.50;21.30;;;;;;;2.67;100.00;102228.38;5050441;56;1140928;-79
2023/12/15 17:58:50;;;;;;;50.13;26.70;;;;;;;2.68;100.00;102230.97;5059658;56;1140947;-79
2023/12/15 18:03:56;;;;;;;44.23;22.93;;;;;;;2.69;100.00;102234.00;4983316;57;1140756;-79
2023/12/15 18:09:01;;;;;;;52.53;26.33;;;;;;;2.72;100.00;102230.48;5004119;57;1140828;-79
2023/12/15 18:14:09;;;;;;;46.40;19.70;;;;;;;2.73;100.00;102234.38;5052005;57;1140809;-78
2023/12/15 18:19:21;;;;;;;96.30;39.07;;;;;;;2.74;100.00;102232.18;5056166;57;1141176;-81
2023/12/15 18:24:21;;;;;;;53.90;25.77;;;;;;;2.75;100.00;102246.94;5050416;57;1141012;-78
2023/12/15 18:29:27;;;;;;;45.43;22.50;;;;;;;2.77;100.00;102258.23;4881528;58;1140889;-76
2023/12/15 18:34:33;;;;;;;46.83;24.47;;;;;;;2.78;100.00;102269.54;4871632;59;1140895;-81
2023/12/15 18:39:38;;;;;;;44.83;23.53;;;;;;;2.79;100.00;102271.27;5029492;57;1140954;-80
2023/12/15 18:44:44;;;;;;;35.37;16.67;;;;;;;2.79;100.00;102276.05;5009293;57;1140911;-78
2023/12/15 18:49:49;;;;;;;48.20;21.97;;;;;;;2.79;100.00;102278.66;4887622;58;1140808;-80
2023/12/15 18:54:56;;;;;;;39.20;18.63;;;;;;;2.83;100.00;102273.81;5115784;57;1141281;-80
2023/12/15 19:00:02;;;;;;;45.47;21.57;;;;;;;2.85;100.00;102265.08;4904838;58;1140999;-79
2023/12/15 19:05:08;;;;;;;47.63;21.17;;;;;;;2.86;100.00;102266.36;4987361;58;1140702;-77
2023/12/15 19:10:14;;;;;;;38.78;16.17;;;;;;;2.90;100.00;102261.95;4940742;58;1140744;-79
2023/12/15 19:15:20;;;;;;;40.97;19.70;;;;;;;2.92;100.00;102259.70;4901528;58;1140839;-78
2023/12/15 19:20:29;;;;;;;47.98;21.82;;;;;;;2.97;100.00;102264.85;4894395;58;1140821;-80
2023/12/15 19:25:33;;;;;;;43.07;20.67;;;;;;;2.98;100.00;102264.83;4962758;57;1140905;-81
2023/12/15 19:30:38;;;;;;;44.90;19.93;;;;;;;3.00;100.00;102280.48;4923321;57;1141024;-79
2023/12/15 19:35:44;;;;;;;44.20;20.13;;;;;;;3.01;100.00;102305.30;4844507;58;1140970;-82
2023/12/15 19:40:50;;;;;;;43.57;19.93;;;;;;;3.04;100.00;102308.30;4844950;58;1140928;-82
2023/12/15 19:45:57;;;;;;;43.43;17.60;;;;;;;3.05;100.00;102316.56;4878582;57;1140978;-79
2023/12/15 19:51:03;;;;;;;40.67;17.85;;;;;;;3.06;100.00;102302.57;4885212;58;1140895;-78
2023/12/15 19:56:09;;;;;;;35.55;15.58;;;;;;;3.07;100.00;102314.75;4874975;58;1141106;-79
2023/12/15 20:01:27;;;;;;;35.33;16.97;;;;;;;3.07;100.00;102306.91;4876176;58;1140901;-77
2023/12/15 20:06:35;;;;;;;40.10;17.70;;;;;;;3.09;100.00;102291.63;4902061;58;1140792;-78
2023/12/15 20:11:40;;;;;;;39.40;18.57;;;;;;;3.11;100.00;102288.55;4893805;58;1140900;-78
2023/12/15 20:16:46;;;;;;;39.70;17.47;;;;;;;3.11;100.00;102295.08;4911554;57;1140843;-77
2023/12/15 20:21:51;;;;;;;37.53;18.47;;;;;;;3.13;100.00;102294.61;4864399;58;1140769;-80
2023/12/15 20:26:57;;;;;;;34.13;16.80;;;;;;;3.15;100.00;102292.83;4897195;58;1141007;-78
2023/12/15 20:32:04;;;;;;;36.03;14.97;;;;;;;3.17;100.00;102293.67;4922680;57;1140915;-77
2023/12/15 20:37:10;;;;;;;38.42;16.25;;;;;;;3.17;100.00;102313.72;4972483;58;1140774;-78
2023/12/15 20:42:15;;;;;;;38.93;16.87;;;;;;;3.15;100.00;102312.88;4954555;58;1140769;-79
2023/12/15 20:47:21;;;;;;;42.50;16.82;;;;;;;3.17;100.00;102318.95;4882521;58;1140703;-80
2023/12/15 20:52:27;;;;;;;38.97;18.10;;;;;;;3.20;100.00;102331.11;4811610;58;1140714;-78
2023/12/15 20:57:32;;;;;;;38.83;17.47;;;;;;;3.21;100.00;102345.91;4999684;57;1140906;-80
2023/12/15 21:02:38;;;;;;;38.33;16.90;;;;;;;3.23;100.00;102338.87;4991173;57;1140891;-79
2023/12/15 21:07:44;;;;;;;34.73;15.73;;;;;;;3.25;100.00;102346.25;5019994;57;1140934;-75
2023/12/15 21:12:49;;;;;;;35.73;14.93;;;;;;;3.28;100.00;102332.68;4999407;57;1140780;-77
2023/12/15 21:17:55;;;;;;;34.80;16.40;;;;;;;3.31;100.00;102319.55;4999942;57;1140924;-78
2023/12/15 21:23:00;;;;;;;49.43;24.43;;;;;;;3.34;100.00;102312.97;5019704;57;1141564;-80
2023/12/15 21:28:06;;;;;;;43.83;18.00;;;;;;;3.37;100.00;102315.50;4989553;57;1140966;-80
2023/12/15 21:33:11;;;;;;;37.00;15.30;;;;;;;3.39;100.00;102324.63;4998977;57;1140894;-80
2023/12/15 21:38:17;;;;;;;44.10;17.52;;;;;;;3.39;100.00;102337.70;5047077;56;1141114;-77
2023/12/15 21:43:22;;;;;;;61.67;24.47;;;;;;;3.41;100.00;102342.02;5080071;57;1141065;-79
2023/12/15 21:48:28;;;;;;;43.97;19.40;;;;;;;3.43;100.00;102327.16;5047888;57;1140699;-81
2023/12/15 21:53:34;;;;;;;48.63;19.37;;;;;;;3.43;100.00;102325.85;5060444;57;1140760;-77
2023/12/15 21:58:40;;;;;;;44.33;18.20;;;;;;;3.45;100.00;102337.16;5062099;57;1141026;-76
2023/12/15 22:03:54;;;;;;;59.93;22.97;;;;;;;3.44;100.00;102338.04;4822957;59;1140724;-78
2023/12/15 22:08:56;;;;;;;52.47;18.00;;;;;;;3.46;100.00;102344.55;4879282;58;1140913;-78
2023/12/15 22:14:02;;;;;;;177.40;48.33;;;;;;;3.46;100.00;102344.55;4788640;60;1141031;-76
2023/12/15 22:19:08;;;;;;;56.05;21.23;;;;;;;3.48;100.00;102345.39;4769658;60;1142950;-77
2023/12/15 22:24:13;;;;;;;52.10;18.10;;;;;;;3.49;100.00;102345.81;4778275;59;1141013;-77
2023/12/15 22:29:19;;;;;;;74.70;24.23;;;;;;;3.50;100.00;102335.77;4844918;58;1140921;-78
2023/12/15 22:34:24;;;;;;;52.20;21.10;;;;;;;3.52;100.00;102337.44;4864241;58;1141215;-78
2023/12/15 22:39:30;;;;;;;55.00;22.33;;;;;;;3.53;100.00;102339.16;4882520;58;1140867;-78
2023/12/15 22:44:39;;;;;;;57.97;22.40;;;;;;;3.57;100.00;102334.73;4891095;58;1140938;-78